createdAt,value
2018-12-11T00:01:46.456Z,21.8
2018-12-11T00:04:52.374Z,21.8
2018-12-11T00:07:58.343Z,21.8
2018-12-11T00:11:04.293Z,21.7
2018-12-11T00:14:10.299Z,21.7
2018-12-11T00:17:16.207Z,21.7
2018-12-11T00:20:22.380Z,21.7
2018-12-11T00:23:29.673Z,21.7
2018-12-11T00:26:35.576Z,21.7
2018-12-11T00:29:41.488Z,21.6
2018-12-11T00:32:47.392Z,21.6
2018-12-11T00:35:53.350Z,21.6
2018-12-11T00:38:59.205Z,21.6
2018-12-11T00:42:05.248Z,21.6
2018-12-11T00:45:11.229Z,21.6
2018-12-11T00:48:17.206Z,21.5
2018-12-11T00:51:23.145Z,21.5
2018-12-11T00:54:29.118Z,21.5
2018-12-11T00:57:35.196Z,21.5
2018-12-11T01:00:41.220Z,21.5
2018-12-11T01:03:47.154Z,21.5
2018-12-11T01:06:53.053Z,21.4
2018-12-11T01:09:59.007Z,21.4
2018-12-11T01:13:04.906Z,21.4
2018-12-11T01:16:10.807Z,21.3
2018-12-11T01:19:16.766Z,21.3
2018-12-11T01:22:22.717Z,21.3
2018-12-11T01:25:28.777Z,21.3
2018-12-11T01:28:34.933Z,21.3
2018-12-11T01:31:40.940Z,21.3
2018-12-11T01:34:46.984Z,21.3
2018-12-11T01:37:52.985Z,21.3
2018-12-11T01:40:58.950Z,21.3
2018-12-11T01:44:04.878Z,21.3
2018-12-11T01:47:10.865Z,21.3
2018-12-11T01:50:16.996Z,21.3
2018-12-11T01:53:22.861Z,21.3
2018-12-11T01:56:28.822Z,21.2
2018-12-11T01:59:34.760Z,21.3
2018-12-11T02:02:40.703Z,21.2
2018-12-11T02:05:46.687Z,21.3
2018-12-11T02:08:52.598Z,21.3
2018-12-11T02:11:58.510Z,21.3
2018-12-11T02:15:04.486Z,21.4
2018-12-11T02:18:10.432Z,21.4
2018-12-11T02:21:16.371Z,21.4
2018-12-11T02:24:22.307Z,21.5
2018-12-11T02:27:28.190Z,21.5
2018-12-11T02:30:34.135Z,21.5
2018-12-11T02:33:42.888Z,21.6
2018-12-11T02:36:48.954Z,21.6
2018-12-11T02:39:54.899Z,21.6
2018-12-11T02:43:00.873Z,21.7
2018-12-11T02:46:06.932Z,21.7
2018-12-11T02:49:12.934Z,21.8
2018-12-11T02:52:18.869Z,21.8
2018-12-11T02:55:24.875Z,21.8
2018-12-11T02:58:30.759Z,21.9
2018-12-11T03:01:36.696Z,21.9
2018-12-11T03:04:42.831Z,21.9
2018-12-11T03:07:48.959Z,22
2018-12-11T03:10:54.975Z,22
2018-12-11T03:14:00.863Z,22
2018-12-11T03:17:06.798Z,22
2018-12-11T03:20:12.730Z,22.1
2018-12-11T03:23:18.662Z,22.1
2018-12-11T03:26:24.679Z,22.1
2018-12-11T03:29:30.619Z,22.1
2018-12-11T03:32:36.675Z,22.2
2018-12-11T03:35:42.806Z,22.2
2018-12-11T03:38:48.742Z,22.2
2018-12-11T03:41:54.665Z,22.3
2018-12-11T03:45:00.662Z,22.3
2018-12-11T03:48:07.034Z,22.3
2018-12-11T03:51:12.962Z,22.3
2018-12-11T03:54:18.959Z,22.4
2018-12-11T03:57:25.043Z,22.4
2018-12-11T04:00:30.902Z,22.5
2018-12-11T04:03:36.877Z,22.5
2018-12-11T04:06:42.836Z,22.6
2018-12-11T04:09:48.860Z,22.6
2018-12-11T04:12:54.870Z,22.7
2018-12-11T04:16:00.851Z,22.7
2018-12-11T04:19:06.776Z,22.8
2018-12-11T04:22:12.761Z,22.8
2018-12-11T04:25:21.273Z,22.9
2018-12-11T04:28:27.222Z,22.9
2018-12-11T04:31:33.121Z,22.9
2018-12-11T04:34:39.061Z,23
2018-12-11T04:37:44.996Z,23
2018-12-11T04:40:50.915Z,23
2018-12-11T04:43:59.796Z,23.1
2018-12-11T04:47:05.745Z,23.1
2018-12-11T04:50:14.611Z,23.1
2018-12-11T04:53:20.527Z,23.2
2018-12-11T04:56:26.500Z,23.2
2018-12-11T04:59:32.485Z,23.2
2018-12-11T05:02:38.388Z,23.3
2018-12-11T05:05:44.294Z,23.3
2018-12-11T05:08:50.324Z,23.4
2018-12-11T05:11:56.235Z,23.4
2018-12-11T05:15:02.185Z,23.4
2018-12-11T05:18:08.114Z,23.5
2018-12-11T05:21:13.988Z,23.5
2018-12-11T05:24:19.969Z,23.5
2018-12-11T05:27:26.126Z,23.5
2018-12-11T05:30:32.070Z,23.6
2018-12-11T05:33:38.019Z,23.6
2018-12-11T05:36:43.972Z,23.6
2018-12-11T05:39:49.980Z,23.6
2018-12-11T05:42:55.912Z,23.7
2018-12-11T05:46:01.847Z,23.7
2018-12-11T05:49:09.067Z,23.7
2018-12-11T05:52:14.917Z,23.8
2018-12-11T05:55:20.855Z,23.8
2018-12-11T05:58:26.798Z,23.9
2018-12-11T06:01:32.819Z,23.9
2018-12-11T06:04:40.767Z,24
2018-12-11T06:07:46.725Z,24
2018-12-11T06:10:52.675Z,24
2018-12-11T06:14:01.303Z,24.1
2018-12-11T06:17:10.114Z,24.1
2018-12-11T06:20:16.088Z,24.2
2018-12-11T06:23:22.090Z,24.3
2018-12-11T06:26:28.068Z,24.3
2018-12-11T06:29:34.069Z,24.3
2018-12-11T06:32:40.115Z,24.4
2018-12-11T06:35:48.820Z,24.4
2018-12-11T06:38:57.051Z,24.5
2018-12-11T06:42:02.880Z,24.5
2018-12-11T06:45:08.859Z,24.5
2018-12-11T06:48:14.693Z,24.6
2018-12-11T06:51:20.638Z,24.6
2018-12-11T06:54:26.494Z,24.7
2018-12-11T06:57:32.475Z,24.7
2018-12-11T07:00:38.504Z,24.8
2018-12-11T07:03:44.436Z,24.8
2018-12-11T07:09:54.572Z,24.9
2018-12-11T07:13:00.635Z,25
2018-12-11T07:16:06.571Z,25.1
2018-12-11T07:19:12.579Z,25.3
2018-12-11T07:22:18.488Z,25.4
2018-12-11T07:25:25.538Z,25.3
2018-12-11T07:28:31.450Z,25.4
2018-12-11T07:31:37.565Z,25.4
2018-12-11T07:34:45.575Z,25.4
2018-12-11T07:37:51.522Z,25.4
2018-12-11T07:40:57.519Z,25.4
2018-12-11T07:44:03.547Z,25.4
2018-12-11T07:47:09.616Z,25.5
2018-12-11T07:50:15.565Z,25.5
2018-12-11T07:53:22.114Z,25.5
2018-12-11T07:56:28.046Z,25.5
2018-12-11T07:59:33.951Z,25.5
2018-12-11T08:02:39.857Z,25.5
2018-12-11T08:05:45.783Z,25.5
2018-12-11T08:08:51.840Z,25.5
2018-12-11T08:11:57.901Z,25.6
2018-12-11T08:15:11.366Z,25.6
2018-12-11T08:21:22.107Z,25.6
2018-12-11T08:24:28.199Z,25.7
2018-12-11T08:27:34.153Z,25.6
2018-12-11T08:30:40.380Z,25.6
2018-12-11T08:33:46.621Z,25.6
2018-12-11T08:36:53.503Z,25.6
2018-12-11T08:39:59.539Z,25.7
2018-12-11T08:43:05.407Z,25.7
2018-12-11T08:46:11.432Z,25.8
2018-12-11T08:49:17.399Z,25.8
2018-12-11T08:52:23.372Z,25.8
2018-12-11T08:55:29.456Z,25.9
2018-12-11T08:58:35.436Z,25.9
2018-12-11T09:01:41.494Z,25.8
2018-12-11T09:04:47.636Z,25.9
2018-12-11T09:07:53.576Z,25.9
2018-12-11T09:10:59.731Z,25.9
2018-12-11T09:14:06.088Z,25.8
2018-12-11T09:17:12.096Z,25.8
2018-12-11T09:20:18.113Z,25.8
2018-12-11T09:23:24.087Z,25.8
2018-12-11T09:26:29.984Z,25.9
2018-12-11T09:29:35.975Z,25.8
2018-12-11T09:32:41.926Z,25.8
2018-12-11T09:35:48.035Z,25.7
2018-12-11T09:38:54.021Z,25.8
2018-12-11T09:41:59.924Z,25.8
2018-12-11T09:45:12.538Z,25.8
2018-12-11T09:48:18.658Z,25.9
2018-12-11T09:51:24.748Z,25.9
2018-12-11T09:54:30.830Z,25.8
2018-12-11T09:57:36.757Z,25.8
2018-12-11T10:00:42.789Z,25.8
2018-12-11T10:03:49.098Z,25.8
2018-12-11T10:06:55.002Z,25.8
2018-12-11T10:10:01.050Z,25.8
2018-12-11T10:13:07.048Z,25.8
2018-12-11T10:16:18.956Z,25.8
2018-12-11T10:19:24.900Z,25.7
2018-12-11T10:22:30.873Z,25.7
2018-12-11T10:25:36.891Z,25.7
2018-12-11T10:28:42.780Z,25.7
2018-12-11T10:31:48.760Z,25.7
2018-12-11T10:34:54.697Z,25.7
2018-12-11T10:38:00.647Z,25.8
2018-12-11T10:41:06.608Z,25.8
2018-12-11T10:44:12.588Z,25.8
2018-12-11T10:47:18.518Z,25.7
2018-12-11T10:50:25.718Z,25.7
2018-12-11T10:53:31.681Z,25.7
2018-12-11T10:56:37.749Z,25.8
2018-12-11T10:59:43.789Z,25.8
2018-12-11T11:02:49.786Z,25.9
2018-12-11T11:05:55.908Z,25.8
2018-12-11T11:09:01.897Z,25.8
2018-12-11T11:12:07.878Z,25.8
2018-12-11T11:15:13.905Z,25.8
2018-12-11T11:18:19.933Z,25.7
2018-12-11T11:21:25.844Z,25.7
2018-12-11T11:24:31.902Z,25.7
2018-12-11T11:27:37.937Z,25.7
2018-12-11T11:30:45.160Z,25.7
2018-12-11T11:33:56.540Z,25.6
2018-12-11T11:37:04.196Z,25.6
2018-12-11T11:40:10.197Z,25.7
2018-12-11T11:43:16.215Z,25.7
2018-12-11T11:46:23.116Z,25.6
2018-12-11T11:49:29.242Z,25.6
2018-12-11T11:52:35.229Z,25.7
2018-12-11T11:55:41.509Z,25.6
2018-12-11T11:58:47.546Z,25.7
2018-12-11T12:01:54.480Z,25.7
2018-12-11T12:05:00.397Z,25.6
2018-12-11T12:08:06.568Z,25.6
2018-12-11T12:11:12.575Z,25.6
2018-12-11T12:14:18.608Z,25.5
2018-12-11T12:17:24.868Z,25.5
2018-12-11T12:20:31.014Z,25.5
2018-12-11T12:23:37.399Z,25.5
2018-12-11T12:26:43.307Z,25.5
2018-12-11T12:29:49.251Z,25.4
2018-12-11T12:32:55.192Z,25.4
2018-12-11T12:36:01.156Z,25.4
2018-12-11T12:39:08.059Z,25.4
2018-12-11T12:42:14.239Z,25.4
2018-12-11T12:45:20.214Z,25.4
2018-12-11T12:48:26.272Z,25.4
2018-12-11T12:51:32.252Z,25.4
2018-12-11T12:54:38.307Z,25.4
2018-12-11T12:57:44.317Z,25.4
2018-12-11T13:00:50.577Z,25.5
2018-12-11T13:03:56.735Z,25.5
2018-12-11T13:07:02.711Z,25.4
2018-12-11T13:10:11.011Z,25.5
2018-12-11T13:13:17.889Z,25.5
2018-12-11T13:16:26.964Z,25.5
2018-12-11T13:19:34.114Z,25.5
2018-12-11T13:22:40.105Z,25.5
2018-12-11T13:25:46.268Z,25.5
2018-12-11T13:28:52.323Z,25.5
2018-12-11T13:31:58.566Z,25.6
2018-12-11T13:35:04.600Z,25.6
2018-12-11T13:38:10.551Z,25.7
2018-12-11T13:41:17.827Z,25.7
2018-12-11T13:44:24.784Z,25.7
2018-12-11T13:47:30.837Z,25.7
2018-12-11T13:50:36.847Z,25.7
2018-12-11T13:53:42.873Z,25.7
2018-12-11T13:56:48.864Z,25.6
2018-12-11T13:59:55.948Z,25.5
2018-12-11T14:03:02.023Z,25.5
2018-12-11T14:06:08.245Z,25.6
2018-12-11T14:09:14.128Z,25.7
2018-12-11T14:12:20.108Z,25.8
2018-12-11T14:15:26.405Z,25.8
2018-12-11T14:18:32.784Z,25.9
2018-12-11T14:21:43.140Z,25.9
2018-12-11T14:24:49.126Z,25.9
2018-12-11T14:27:55.166Z,25.8
2018-12-11T14:31:01.281Z,25.9
2018-12-11T14:34:07.176Z,25.8
2018-12-11T14:37:13.882Z,25.8
2018-12-11T14:40:19.985Z,25.9
2018-12-11T14:43:25.930Z,25.9
2018-12-11T14:46:32.122Z,25.8
2018-12-11T14:49:38.054Z,25.9
2018-12-11T14:52:44.147Z,25.9
2018-12-11T14:55:50.389Z,25.9
2018-12-11T14:58:56.477Z,25.9
2018-12-11T15:02:02.351Z,25.9
2018-12-11T15:05:08.320Z,25.9
2018-12-11T15:08:15.448Z,25.7
2018-12-11T15:11:21.462Z,25.9
2018-12-11T15:14:27.433Z,25.9
2018-12-11T15:17:33.439Z,25.8
2018-12-11T15:20:39.388Z,25.8
2018-12-11T15:23:45.361Z,25.8
2018-12-11T15:26:53.409Z,25.7
2018-12-11T15:29:59.424Z,25.7
2018-12-11T15:33:05.575Z,25.7
2018-12-11T15:36:11.496Z,25.6
2018-12-11T15:39:17.572Z,25.6
2018-12-11T15:42:23.615Z,25.7
2018-12-11T15:45:30.534Z,25.6
2018-12-11T15:48:36.854Z,25.6
2018-12-11T15:51:42.719Z,25.6
2018-12-11T15:54:48.663Z,25.6
2018-12-11T15:57:54.638Z,25.6
2018-12-11T16:01:00.599Z,25.6
2018-12-11T16:04:06.640Z,25.6
2018-12-11T16:07:12.596Z,25.5
2018-12-11T16:10:18.467Z,25.5
2018-12-11T16:13:24.533Z,25.5
2018-12-11T16:16:30.496Z,25.5
2018-12-11T16:19:36.355Z,25.6
2018-12-11T16:22:42.355Z,25.5
2018-12-11T16:25:49.502Z,25.5
2018-12-11T16:28:55.516Z,25.5
2018-12-11T16:32:01.431Z,25.5
2018-12-11T16:35:07.370Z,25.5
2018-12-11T16:38:14.757Z,25.5
2018-12-11T16:41:20.758Z,25.5
2018-12-11T16:44:27.024Z,25.5
2018-12-11T16:47:33.013Z,25.6
2018-12-11T16:50:38.928Z,25.5
2018-12-11T16:53:44.908Z,25.5
2018-12-11T16:56:50.896Z,25.5
2018-12-11T16:59:56.856Z,25.4
2018-12-11T17:03:02.850Z,25.4
2018-12-11T17:06:08.772Z,25.4
2018-12-11T17:09:14.823Z,25.4
2018-12-11T17:12:20.802Z,25.3
2018-12-11T17:15:26.790Z,25.3
2018-12-11T17:18:32.890Z,25.2
2018-12-11T17:21:38.841Z,25.2
2018-12-11T17:24:51.173Z,25.2
2018-12-11T17:27:57.088Z,25.2
2018-12-11T17:31:03.196Z,25.2
2018-12-11T17:34:09.120Z,25.2
2018-12-11T17:37:16.171Z,25.1
2018-12-11T17:40:22.168Z,25.1
2018-12-11T17:43:28.122Z,25.1
2018-12-11T17:46:34.251Z,25
2018-12-11T17:49:40.197Z,25
2018-12-11T17:52:46.185Z,25
2018-12-11T17:55:52.163Z,24.9
2018-12-11T17:58:58.119Z,24.9
2018-12-11T18:02:04.241Z,24.9
2018-12-11T18:05:10.394Z,24.8
2018-12-11T18:08:16.305Z,24.8
2018-12-11T18:11:22.382Z,24.8
2018-12-11T18:14:28.334Z,24.7
2018-12-11T18:17:34.328Z,24.7
2018-12-11T18:20:40.298Z,24.6
2018-12-11T18:23:46.406Z,24.6
2018-12-11T18:26:52.442Z,24.6
2018-12-11T18:29:58.426Z,24.6
2018-12-11T18:33:04.471Z,24.5
2018-12-11T18:36:10.467Z,24.5
2018-12-11T18:39:16.589Z,24.5
2018-12-11T18:42:22.710Z,24.5
2018-12-11T18:45:28.751Z,24.4
2018-12-11T18:48:34.806Z,24.4
2018-12-11T18:51:41.083Z,24.4
2018-12-11T18:54:47.094Z,24.3
2018-12-11T18:57:53.151Z,24.3
2018-12-11T19:00:59.049Z,24.3
2018-12-11T19:04:05.196Z,24.3
2018-12-11T19:07:11.098Z,24.2
2018-12-11T19:10:17.103Z,24.2
2018-12-11T19:13:23.086Z,24.2
2018-12-11T19:16:29.042Z,24.1
2018-12-11T19:19:35.091Z,24.1
2018-12-11T19:22:41.004Z,24.1
2018-12-11T19:25:46.993Z,24.1
2018-12-11T19:28:52.939Z,24
2018-12-11T19:31:58.912Z,24
2018-12-11T19:35:04.921Z,24
2018-12-11T19:38:10.943Z,24
2018-12-11T19:41:16.985Z,24
2018-12-11T19:44:22.980Z,23.9
2018-12-11T19:47:29.063Z,23.9
2018-12-11T19:50:35.344Z,23.9
2018-12-11T19:53:41.354Z,23.9
2018-12-11T19:56:50.019Z,23.8
2018-12-11T19:59:56.072Z,23.8
2018-12-11T20:03:02.061Z,23.7
2018-12-11T20:06:14.250Z,23.6
2018-12-11T20:09:20.253Z,23.6
2018-12-11T20:12:26.197Z,23.5
2018-12-11T20:15:33.557Z,23.5
2018-12-11T20:18:39.812Z,23.4
2018-12-11T20:21:45.761Z,23.4
2018-12-11T20:24:51.706Z,23.3
2018-12-11T20:27:57.667Z,23.3
2018-12-11T20:31:03.553Z,23.3
2018-12-11T20:34:09.604Z,23.2
2018-12-11T20:37:15.540Z,23.2
2018-12-11T20:40:21.566Z,23.1
2018-12-11T20:43:27.586Z,23.1
2018-12-11T20:46:34.973Z,23.1
2018-12-11T20:49:40.991Z,23
2018-12-11T20:52:46.909Z,23
2018-12-11T20:55:52.939Z,23
2018-12-11T20:58:58.811Z,23
2018-12-11T21:02:04.845Z,22.9
2018-12-11T21:05:10.754Z,22.9
2018-12-11T21:08:17.664Z,22.9
2018-12-11T21:11:23.733Z,22.8
2018-12-11T21:14:32.389Z,22.8
2018-12-11T21:17:38.287Z,22.8
2018-12-11T21:20:44.271Z,22.8
2018-12-11T21:23:50.239Z,22.7
2018-12-11T21:26:56.126Z,22.7
2018-12-11T21:30:02.058Z,22.8
2018-12-11T21:33:08.008Z,22.7
2018-12-11T21:36:13.988Z,22.7
2018-12-11T21:39:19.944Z,22.7
2018-12-11T21:42:25.832Z,22.6
2018-12-11T21:45:31.760Z,22.6
2018-12-11T21:48:37.700Z,22.6
2018-12-11T21:51:43.665Z,22.5
2018-12-11T21:54:49.708Z,22.5
2018-12-11T21:57:55.689Z,22.5
2018-12-11T22:01:01.707Z,22.5
2018-12-11T22:04:07.766Z,22.5
2018-12-11T22:07:13.725Z,22.5
2018-12-11T22:10:19.684Z,22.5
2018-12-11T22:13:25.717Z,22.4
2018-12-11T22:16:31.592Z,22.4
2018-12-11T22:19:37.556Z,22.4
2018-12-11T22:22:43.570Z,22.3
2018-12-11T22:25:49.589Z,22.4
2018-12-11T22:28:55.640Z,22.3
2018-12-11T22:32:01.585Z,22.3
2018-12-11T22:35:07.539Z,22.3
2018-12-11T22:38:13.471Z,22.3
2018-12-11T22:41:19.560Z,22.2
2018-12-11T22:44:25.477Z,22.2
2018-12-11T22:47:31.460Z,22.2
2018-12-11T22:50:37.569Z,22.2
2018-12-11T22:53:43.590Z,22.2
2018-12-11T22:56:49.675Z,22.2
2018-12-11T22:59:55.631Z,22.2
2018-12-11T23:03:01.545Z,22.2
2018-12-11T23:06:07.550Z,22.1
2018-12-11T23:09:13.553Z,22.1
2018-12-11T23:12:19.520Z,22.1
2018-12-11T23:15:25.524Z,22.1
2018-12-11T23:18:31.455Z,22.1
2018-12-11T23:21:37.567Z,22.1
2018-12-11T23:24:43.620Z,22
2018-12-11T23:27:49.525Z,22
2018-12-11T23:30:55.495Z,22
2018-12-11T23:34:01.458Z,22
2018-12-11T23:37:07.349Z,22
2018-12-11T23:40:13.273Z,22
2018-12-11T23:43:19.214Z,22
2018-12-11T23:46:25.120Z,22
2018-12-11T23:49:31.048Z,22
2018-12-11T23:52:37.056Z,22
2018-12-11T23:55:43.000Z,21.9
2018-12-11T23:58:48.974Z,21.9
